createdAt,value
2023-09-12T00:00:25.067Z,34.00
2023-09-12T00:00:57.100Z,36.28
2023-09-12T00:01:28.593Z,33.45
2023-09-12T00:02:00.139Z,37.58
2023-09-12T00:02:31.981Z,33.20
2023-09-12T00:03:03.776Z,32.67
2023-09-12T00:03:35.920Z,35.08
2023-09-12T00:04:07.551Z,33.22
2023-09-12T00:04:38.994Z,32.65
2023-09-12T00:05:10.471Z,35.13
2023-09-12T00:05:41.860Z,32.13
2023-09-12T00:06:13.316Z,35.75
2023-09-12T00:06:44.776Z,33.38
2023-09-12T00:07:16.192Z,31.42
2023-09-12T00:07:47.727Z,32.72
2023-09-12T00:08:19.136Z,33.33
2023-09-12T00:08:50.619Z,32.20
2023-09-12T00:09:22.126Z,35.70
2023-09-12T00:09:53.528Z,32.92
2023-09-12T00:10:25.887Z,33.25
2023-09-12T00:11:13.372Z,34.03
2023-09-12T00:11:44.922Z,35.17
2023-09-12T00:12:17.623Z,31.20
2023-09-12T00:12:49.165Z,34.05
2023-09-12T00:13:20.624Z,30.15
2023-09-12T00:13:52.868Z,31.95
2023-09-12T00:14:24.290Z,30.08
2023-09-12T00:14:55.718Z,35.53
2023-09-12T00:15:27.266Z,34.15
2023-09-12T00:15:59.072Z,30.52
2023-09-12T00:16:30.589Z,34.00
2023-09-12T00:17:02.181Z,32.38
2023-09-12T00:17:33.724Z,33.83
2023-09-12T00:18:05.435Z,32.53
2023-09-12T00:18:37.071Z,33.75
2023-09-12T00:19:08.477Z,33.22
2023-09-12T00:19:39.927Z,36.47
2023-09-12T00:20:12.294Z,39.35
2023-09-12T00:20:43.739Z,39.58
2023-09-12T00:21:15.234Z,36.10
2023-09-12T00:21:46.852Z,34.47
2023-09-12T00:22:18.272Z,36.30
2023-09-12T00:22:49.845Z,37.00
2023-09-12T00:23:23.709Z,36.95
2023-09-12T00:23:55.078Z,39.17
2023-09-12T00:24:26.616Z,36.92
2023-09-12T00:24:58.049Z,35.25
2023-09-12T00:25:29.501Z,38.42
2023-09-12T00:26:01.008Z,34.08
2023-09-12T00:26:32.660Z,34.83
2023-09-12T00:27:05.895Z,32.47
2023-09-12T00:27:37.428Z,32.80
2023-09-12T00:28:08.887Z,32.58
2023-09-12T00:28:41.810Z,32.67
2023-09-12T00:29:13.634Z,33.17
2023-09-12T00:29:45.171Z,35.83
2023-09-12T00:30:16.820Z,35.80
2023-09-12T00:30:48.292Z,33.10
2023-09-12T00:31:19.724Z,31.10
2023-09-12T00:31:51.327Z,31.50
2023-09-12T00:32:22.804Z,32.33
2023-09-12T00:32:54.307Z,32.53
2023-09-12T00:33:25.810Z,28.35
2023-09-12T00:33:57.305Z,31.58
2023-09-12T00:34:28.789Z,31.42
2023-09-12T00:35:00.262Z,28.55
2023-09-12T00:35:31.691Z,30.67
2023-09-12T00:36:03.168Z,33.05
2023-09-12T00:36:34.673Z,31.40
2023-09-12T00:37:06.232Z,32.10
2023-09-12T00:37:38.186Z,31.77
2023-09-12T00:38:10.202Z,34.45
2023-09-12T00:38:41.840Z,31.75
2023-09-12T00:39:13.495Z,34.53
2023-09-12T00:39:44.970Z,36.92
2023-09-12T00:40:16.435Z,34.00
2023-09-12T00:40:48.577Z,36.58
2023-09-12T00:41:19.984Z,31.55
2023-09-12T00:41:51.426Z,37.35
2023-09-12T00:42:25.843Z,34.45
2023-09-12T00:42:57.436Z,38.00
2023-09-12T00:43:28.850Z,35.13
2023-09-12T00:44:00.453Z,32.78
2023-09-12T00:44:31.871Z,35.83
2023-09-12T00:45:03.453Z,33.45
2023-09-12T00:45:35.011Z,30.52
2023-09-12T00:46:06.506Z,35.70
2023-09-12T00:46:38.710Z,35.90
2023-09-12T00:47:12.050Z,31.73
2023-09-12T00:47:43.955Z,33.67
2023-09-12T00:48:17.943Z,38.00
2023-09-12T00:48:50.490Z,30.83
2023-09-12T00:49:23.689Z,32.45
2023-09-12T00:49:57.627Z,28.83
2023-09-12T00:50:31.613Z,33.25
2023-09-12T00:51:03.825Z,32.42
2023-09-12T00:51:37.062Z,32.50
2023-09-12T00:52:09.558Z,29.45
2023-09-12T00:52:41.817Z,32.10
2023-09-12T00:53:13.429Z,36.80
2023-09-12T00:53:44.995Z,30.60
2023-09-12T00:54:16.646Z,30.00
2023-09-12T00:54:48.120Z,33.42
2023-09-12T00:55:21.872Z,32.58
2023-09-12T00:55:58.454Z,32.70
2023-09-12T00:56:30.083Z,30.35
2023-09-12T00:57:01.812Z,34.58
2023-09-12T00:57:35.624Z,28.45
2023-09-12T00:58:08.578Z,32.58
2023-09-12T00:58:40.796Z,36.08
2023-09-12T00:59:12.784Z,31.50
2023-09-12T00:59:44.318Z,32.83
2023-09-12T01:00:16.608Z,32.40
2023-09-12T01:00:48.990Z,33.30
2023-09-12T01:01:21.904Z,31.98
2023-09-12T01:01:53.429Z,29.10
2023-09-12T01:02:26.027Z,32.72
2023-09-12T01:02:59.339Z,36.92
2023-09-12T01:03:31.897Z,31.52
2023-09-12T01:04:04.298Z,34.88
2023-09-12T01:04:38.040Z,33.33
2023-09-12T01:05:11.177Z,32.15
2023-09-12T01:05:44.130Z,34.40
2023-09-12T01:06:20.641Z,33.03
2023-09-12T01:06:53.084Z,31.85
2023-09-12T01:07:25.065Z,31.45
2023-09-12T01:07:57.549Z,28.92
2023-09-12T01:08:29.307Z,32.40
2023-09-12T01:09:01.263Z,35.65
2023-09-12T01:09:34.468Z,33.28
2023-09-12T01:10:07.353Z,31.50
2023-09-12T01:10:38.861Z,34.45
2023-09-12T01:11:10.628Z,32.13
2023-09-12T01:11:42.495Z,31.63
2023-09-12T01:12:15.698Z,32.90
2023-09-12T01:12:47.384Z,33.88
2023-09-12T01:13:18.830Z,30.80
2023-09-12T01:13:50.247Z,31.10
2023-09-12T01:14:21.699Z,32.15
2023-09-12T01:14:53.742Z,29.80
2023-09-12T01:15:25.281Z,32.30
2023-09-12T01:15:57.177Z,30.52
2023-09-12T01:16:28.769Z,29.13
2023-09-12T01:17:02.433Z,30.58
2023-09-12T01:17:34.078Z,29.75
2023-09-12T01:18:05.812Z,28.10
2023-09-12T01:18:38.034Z,28.33
2023-09-12T01:19:15.874Z,29.70
2023-09-12T01:19:49.386Z,29.02
2023-09-12T01:20:28.671Z,32.67
2023-09-12T01:21:37.878Z,32.37
2023-09-12T01:22:37.339Z,29.20
2023-09-12T01:23:38.014Z,29.65
2023-09-12T01:24:33.415Z,29.52
2023-09-12T01:25:16.691Z,29.67
2023-09-12T01:26:09.719Z,31.48
2023-09-12T01:27:03.560Z,29.40
2023-09-12T01:27:47.755Z,28.40
2023-09-12T01:28:19.565Z,28.73
2023-09-12T01:28:52.251Z,26.55
2023-09-12T01:29:25.385Z,33.00
2023-09-12T01:30:04.749Z,32.42
2023-09-12T01:30:37.269Z,29.90
2023-09-12T01:31:08.834Z,30.70
2023-09-12T01:31:41.315Z,29.58
2023-09-12T01:32:15.153Z,26.13
2023-09-12T01:32:48.068Z,28.75
2023-09-12T01:33:20.622Z,26.25
2023-09-12T01:33:57.459Z,32.47
2023-09-12T01:34:28.947Z,27.40
2023-09-12T01:35:01.102Z,30.27
2023-09-12T01:35:32.636Z,26.73
2023-09-12T01:36:04.409Z,27.77
2023-09-12T01:36:35.925Z,29.63
2023-09-12T01:37:07.366Z,28.85
2023-09-12T01:37:38.786Z,31.65
2023-09-12T01:38:10.585Z,27.98
2023-09-12T01:38:42.313Z,27.13
2023-09-12T01:39:14.441Z,29.15
2023-09-12T01:39:46.178Z,29.10
2023-09-12T01:40:18.164Z,33.47
2023-09-12T01:40:55.965Z,32.08
2023-09-12T01:41:30.135Z,33.50
2023-09-12T01:42:02.709Z,30.15
2023-09-12T01:42:39.627Z,32.70
2023-09-12T01:43:12.767Z,31.60
2023-09-12T01:43:45.089Z,31.88
2023-09-12T01:44:17.507Z,33.13
2023-09-12T01:44:52.346Z,31.35
2023-09-12T01:45:24.528Z,32.22
2023-09-12T01:45:59.623Z,33.80
2023-09-12T01:46:34.134Z,32.90
2023-09-12T01:47:07.637Z,30.00
2023-09-12T01:47:40.927Z,30.27
2023-09-12T01:48:12.992Z,33.55
2023-09-12T01:48:45.878Z,31.73
2023-09-12T01:49:20.389Z,31.70
2023-09-12T01:49:56.585Z,29.88
2023-09-12T01:50:29.366Z,29.30
2023-09-12T01:51:02.545Z,30.92
2023-09-12T01:51:34.667Z,31.50
2023-09-12T01:52:06.794Z,30.63
2023-09-12T01:52:38.745Z,32.60
2023-09-12T01:53:11.110Z,31.33
2023-09-12T01:53:46.074Z,29.02
2023-09-12T01:54:18.416Z,31.33
2023-09-12T01:54:51.748Z,33.65
2023-09-12T01:55:23.770Z,29.13
2023-09-12T01:55:56.700Z,31.45
2023-09-12T01:56:29.134Z,32.85
2023-09-12T01:57:01.675Z,31.40
2023-09-12T01:57:33.915Z,31.58
2023-09-12T01:58:05.778Z,31.52
2023-09-12T01:58:37.604Z,29.58
2023-09-12T01:59:09.735Z,30.60
2023-09-12T01:59:41.211Z,30.10
2023-09-12T02:00:14.134Z,30.73
2023-09-12T02:00:45.607Z,31.90
2023-09-12T02:01:17.043Z,32.17
2023-09-12T02:01:48.542Z,32.85
2023-09-12T02:02:20.131Z,30.43
2023-09-12T02:02:51.697Z,31.95
2023-09-12T02:03:23.255Z,32.00
2023-09-12T02:03:54.796Z,31.75
2023-09-12T02:04:26.328Z,31.85
2023-09-12T02:05:19.978Z,32.50
2023-09-12T02:05:51.638Z,29.58
2023-09-12T02:06:23.431Z,29.42
2023-09-12T02:06:54.912Z,32.30
2023-09-12T02:07:27.941Z,31.83
2023-09-12T02:08:02.472Z,33.57
2023-09-12T02:08:33.939Z,29.58
2023-09-12T02:09:05.450Z,32.63
2023-09-12T02:09:37.021Z,30.90
2023-09-12T02:10:10.717Z,30.48
2023-09-12T02:10:42.225Z,33.40
2023-09-12T02:11:13.649Z,30.00
2023-09-12T02:11:45.655Z,29.92
2023-09-12T02:12:17.086Z,31.23
2023-09-12T02:12:48.743Z,29.65
2023-09-12T02:13:20.289Z,30.47
2023-09-12T02:13:51.706Z,29.77
2023-09-12T02:14:23.147Z,29.55
2023-09-12T02:14:54.774Z,30.63
2023-09-12T02:15:26.374Z,32.05
2023-09-12T02:16:04.644Z,25.50
2023-09-12T02:16:40.973Z,30.35
2023-09-12T02:17:13.987Z,29.65
2023-09-12T02:17:45.558Z,29.67
2023-09-12T02:18:17.097Z,28.63
2023-09-12T02:18:49.455Z,27.67
2023-09-12T02:19:20.976Z,30.08
2023-09-12T02:19:52.340Z,26.13
2023-09-12T02:20:23.926Z,28.02
2023-09-12T02:20:55.387Z,27.38
2023-09-12T02:21:26.819Z,26.15
2023-09-12T02:21:58.434Z,28.70
2023-09-12T02:22:29.906Z,27.05
2023-09-12T02:23:01.281Z,25.85
2023-09-12T02:23:32.745Z,25.40
2023-09-12T02:24:04.432Z,25.27
2023-09-12T02:24:36.227Z,24.88
2023-09-12T02:25:09.560Z,23.70
2023-09-12T02:25:41.143Z,23.75
2023-09-12T02:26:12.629Z,24.35
2023-09-12T02:26:44.054Z,24.17
2023-09-12T02:27:15.507Z,23.45
2023-09-12T02:27:46.991Z,23.10
2023-09-12T02:28:18.429Z,23.52
2023-09-12T02:28:49.879Z,25.35
2023-09-12T02:29:21.605Z,26.07
2023-09-12T02:29:53.105Z,24.55
2023-09-12T02:30:24.501Z,25.48
2023-09-12T02:30:56.006Z,26.58
2023-09-12T02:31:27.431Z,27.92
2023-09-12T02:31:59.087Z,28.30
2023-09-12T02:32:31.039Z,28.33
2023-09-12T02:33:02.626Z,28.67
2023-09-12T02:33:34.188Z,29.27
2023-09-12T02:34:05.928Z,28.70
2023-09-12T02:34:37.315Z,27.07
2023-09-12T02:35:08.859Z,27.85
2023-09-12T02:35:40.408Z,26.83
2023-09-12T02:36:12.076Z,27.65
2023-09-12T02:36:43.700Z,26.88
2023-09-12T02:37:16.737Z,27.33
2023-09-12T02:37:48.192Z,29.20
2023-09-12T02:38:19.887Z,26.17
2023-09-12T02:38:51.367Z,27.27
2023-09-12T02:39:22.844Z,23.88
2023-09-12T02:39:54.352Z,25.50
2023-09-12T02:40:26.313Z,25.50
2023-09-12T02:40:57.865Z,27.20
2023-09-12T02:41:29.362Z,24.95
2023-09-12T02:42:00.882Z,24.42
2023-09-12T02:42:32.353Z,23.52
2023-09-12T02:43:04.010Z,25.00
2023-09-12T02:43:35.514Z,23.92
2023-09-12T02:44:07.052Z,24.30
2023-09-12T02:44:38.452Z,24.67
2023-09-12T02:45:10.328Z,25.87
2023-09-12T02:45:41.945Z,23.25
2023-09-12T02:46:13.478Z,23.85
2023-09-12T02:46:44.987Z,24.15
2023-09-12T02:47:17.265Z,27.45
2023-09-12T02:47:48.809Z,23.90
2023-09-12T02:48:20.360Z,23.58
2023-09-12T02:48:51.955Z,23.45
2023-09-12T02:49:23.441Z,23.45
2023-09-12T02:49:54.887Z,22.48
2023-09-12T02:50:26.313Z,25.57
2023-09-12T02:50:57.893Z,23.80
2023-09-12T02:51:29.560Z,25.23
2023-09-12T02:52:01.024Z,25.80
2023-09-12T02:52:32.532Z,24.73
2023-09-12T02:53:04.330Z,23.52
2023-09-12T02:53:35.747Z,22.48
2023-09-12T02:54:07.357Z,23.27
2023-09-12T02:54:38.891Z,22.55
2023-09-12T02:55:10.390Z,22.10
2023-09-12T02:55:43.534Z,22.63
2023-09-12T02:56:14.938Z,21.10
2023-09-12T02:56:46.361Z,23.50
2023-09-12T02:57:17.844Z,21.40
2023-09-12T02:57:49.367Z,22.85
2023-09-12T02:58:20.844Z,22.85
2023-09-12T02:58:52.325Z,22.98
2023-09-12T02:59:23.834Z,22.67
2023-09-12T02:59:55.321Z,20.98
2023-09-12T03:00:26.723Z,21.40
2023-09-12T03:00:58.240Z,20.97
2023-09-12T03:01:29.800Z,20.88
2023-09-12T03:02:01.230Z,24.10
2023-09-12T03:02:33.196Z,24.48
2023-09-12T03:03:04.972Z,23.45
2023-09-12T03:03:36.711Z,24.77
2023-09-12T03:04:08.386Z,24.63
2023-09-12T03:04:39.928Z,24.45
2023-09-12T03:05:11.466Z,22.80
2023-09-12T03:05:42.870Z,22.83
2023-09-12T03:06:17.586Z,23.63
2023-09-12T03:06:49.048Z,23.90
2023-09-12T03:07:20.511Z,24.33
2023-09-12T03:07:51.924Z,23.23
2023-09-12T03:08:23.439Z,23.65
2023-09-12T03:08:54.944Z,22.70
2023-09-12T03:09:26.468Z,25.95
2023-09-12T03:09:58.049Z,21.90
2023-09-12T03:10:29.469Z,24.08
2023-09-12T03:11:02.644Z,21.60
2023-09-12T03:11:34.155Z,23.03
2023-09-12T03:12:06.090Z,22.15
2023-09-12T03:12:38.427Z,22.92
2023-09-12T03:13:12.693Z,23.27
2023-09-12T03:13:44.083Z,24.73
2023-09-12T03:14:15.633Z,22.85
2023-09-12T03:14:47.083Z,27.70
2023-09-12T03:15:18.588Z,26.98
2023-09-12T03:15:50.045Z,31.48
2023-09-12T03:16:21.849Z,31.10
2023-09-12T03:16:53.399Z,29.37
2023-09-12T03:17:24.993Z,30.30
2023-09-12T03:17:56.887Z,30.67
2023-09-12T03:18:28.374Z,34.92
2023-09-12T03:19:01.632Z,35.35
2023-09-12T03:19:33.132Z,41.72
2023-09-12T03:20:08.793Z,40.10
2023-09-12T03:20:40.694Z,41.70
2023-09-12T03:21:12.269Z,40.15
2023-09-12T03:21:43.919Z,41.50
2023-09-12T03:22:15.455Z,39.17
2023-09-12T03:22:47.137Z,39.20
2023-09-12T03:23:20.425Z,39.03
2023-09-12T03:23:51.927Z,37.85
2023-09-12T03:24:25.839Z,37.30
2023-09-12T03:24:57.284Z,35.88
2023-09-12T03:25:28.722Z,38.00
2023-09-12T03:26:04.797Z,38.53
2023-09-12T03:26:36.890Z,40.63
2023-09-12T03:27:08.999Z,34.58
2023-09-12T03:27:40.618Z,31.90
2023-09-12T03:28:12.124Z,36.72
2023-09-12T03:28:43.805Z,36.22
2023-09-12T03:29:15.476Z,32.47
2023-09-12T03:29:50.122Z,38.10
2023-09-12T03:30:22.451Z,31.77
2023-09-12T03:31:03.843Z,32.92
2023-09-12T03:31:36.414Z,34.38
2023-09-12T03:32:07.925Z,33.50
2023-09-12T03:32:39.399Z,34.17
2023-09-12T03:33:11.100Z,34.87
2023-09-12T03:33:43.688Z,34.10
2023-09-12T03:34:15.233Z,32.53
2023-09-12T03:34:46.609Z,32.38
2023-09-12T03:35:18.094Z,30.52
2023-09-12T03:35:49.680Z,29.00
2023-09-12T03:36:21.229Z,29.23
2023-09-12T03:36:52.731Z,30.33
2023-09-12T03:37:28.199Z,29.02
2023-09-12T03:37:59.825Z,29.30
2023-09-12T03:38:31.330Z,29.53
2023-09-12T03:39:03.963Z,30.05
2023-09-12T03:39:35.545Z,33.53
2023-09-12T03:40:08.544Z,28.77
2023-09-12T03:40:40.021Z,29.85
2023-09-12T03:41:11.606Z,28.17
2023-09-12T03:41:43.513Z,29.13
2023-09-12T03:42:14.981Z,31.63
2023-09-12T03:42:46.483Z,29.08
2023-09-12T03:43:17.979Z,26.42
2023-09-12T03:43:49.425Z,24.90
2023-09-12T03:44:20.991Z,28.13
2023-09-12T03:44:52.401Z,26.27
2023-09-12T03:45:24.623Z,26.58
2023-09-12T03:45:56.190Z,24.80
2023-09-12T03:46:27.812Z,25.50
2023-09-12T03:46:59.449Z,23.77
2023-09-12T03:47:30.980Z,25.98
2023-09-12T03:48:02.533Z,27.52
2023-09-12T03:48:37.711Z,26.17
2023-09-12T03:49:09.130Z,24.37
2023-09-12T03:49:40.519Z,24.25
2023-09-12T03:50:11.929Z,26.42
2023-09-12T03:50:43.513Z,26.88
2023-09-12T03:51:16.067Z,23.35
2023-09-12T03:51:47.549Z,25.75
2023-09-12T03:52:19.050Z,29.50
2023-09-12T03:52:50.567Z,26.42
2023-09-12T03:53:21.953Z,27.17
2023-09-12T03:53:53.497Z,25.40
2023-09-12T03:54:24.932Z,27.43
2023-09-12T03:54:56.500Z,26.52
2023-09-12T03:55:28.628Z,27.17
2023-09-12T03:56:00.770Z,25.90
2023-09-12T03:56:32.395Z,26.20
2023-09-12T03:57:04.134Z,26.98
2023-09-12T03:57:35.813Z,26.13
2023-09-12T03:58:07.375Z,25.52
2023-09-12T03:58:39.858Z,23.83
2023-09-12T03:59:11.356Z,29.30
2023-09-12T03:59:42.882Z,28.43
2023-09-12T04:00:15.049Z,24.70
2023-09-12T04:00:46.535Z,22.80
2023-09-12T04:01:18.084Z,25.13
2023-09-12T04:01:49.537Z,27.00
2023-09-12T04:02:21.234Z,24.20
2023-09-12T04:02:52.794Z,25.30
2023-09-12T04:03:24.452Z,27.88
2023-09-12T04:03:55.977Z,25.67
2023-09-12T04:04:27.637Z,27.80
2023-09-12T04:05:00.509Z,25.83
2023-09-12T04:05:32.227Z,25.08
2023-09-12T04:06:03.816Z,24.25
2023-09-12T04:06:35.594Z,29.92
2023-09-12T04:07:07.214Z,25.63
2023-09-12T04:07:38.766Z,24.35
2023-09-12T04:08:10.181Z,26.83
2023-09-12T04:08:41.920Z,25.70
2023-09-12T04:09:13.595Z,25.45
2023-09-12T04:09:45.417Z,26.90
2023-09-12T04:10:17.027Z,26.93
2023-09-12T04:10:48.500Z,29.20
2023-09-12T04:11:25.295Z,27.92
2023-09-12T04:12:03.420Z,28.42
2023-09-12T04:12:34.897Z,26.77
2023-09-12T04:13:06.382Z,26.45
2023-09-12T04:13:37.891Z,26.90
2023-09-12T04:14:09.324Z,29.00
2023-09-12T04:14:40.767Z,23.20
2023-09-12T04:15:12.387Z,26.33
2023-09-12T04:15:43.909Z,28.10
2023-09-12T04:16:15.660Z,27.33
2023-09-12T04:16:47.527Z,26.88
2023-09-12T04:17:19.303Z,25.67
2023-09-12T04:17:50.840Z,24.75
2023-09-12T04:18:22.487Z,27.85
2023-09-12T04:18:54.033Z,30.02
2023-09-12T04:19:26.205Z,30.40
2023-09-12T04:19:57.597Z,27.33
2023-09-12T04:20:29.239Z,28.55
2023-09-12T04:21:00.726Z,28.20
2023-09-12T04:21:32.226Z,25.67
2023-09-12T04:22:05.548Z,27.20
2023-09-12T04:22:37.063Z,29.20
2023-09-12T04:23:08.630Z,28.45
2023-09-12T04:23:40.051Z,26.27
2023-09-12T04:24:12.029Z,29.35
2023-09-12T04:24:43.689Z,29.35
2023-09-12T04:25:15.157Z,26.42
2023-09-12T04:25:47.088Z,27.35
2023-09-12T04:26:18.592Z,28.77
2023-09-12T04:26:50.068Z,30.98
2023-09-12T04:27:21.567Z,26.83
2023-09-12T04:27:53.078Z,28.52
2023-09-12T04:28:27.377Z,26.30
2023-09-12T04:28:58.787Z,27.40
2023-09-12T04:29:30.247Z,29.20
2023-09-12T04:30:01.819Z,29.65
2023-09-12T04:30:33.382Z,32.58
2023-09-12T04:31:05.275Z,26.90
2023-09-12T04:31:36.758Z,27.07
2023-09-12T04:32:08.154Z,32.47
2023-09-12T04:32:39.603Z,30.20
2023-09-12T04:33:11.004Z,29.52
2023-09-12T04:33:42.521Z,26.10
2023-09-12T04:34:14.072Z,27.20
2023-09-12T04:34:45.535Z,29.13
2023-09-12T04:35:17.047Z,24.95
2023-09-12T04:35:48.547Z,25.20
2023-09-12T04:36:20.984Z,27.80
2023-09-12T04:36:53.562Z,32.83
2023-09-12T04:37:25.161Z,29.35
2023-09-12T04:37:56.602Z,26.08
2023-09-12T04:38:28.165Z,27.85
2023-09-12T04:39:00.275Z,27.80
2023-09-12T04:39:32.271Z,26.45
2023-09-12T04:40:06.352Z,26.25
2023-09-12T04:40:38.866Z,26.27
2023-09-12T04:41:15.307Z,26.70
2023-09-12T04:41:47.258Z,27.02
2023-09-12T04:42:18.967Z,25.73
2023-09-12T04:42:50.445Z,26.65
2023-09-12T04:43:21.946Z,27.35
2023-09-12T04:43:53.298Z,28.77
2023-09-12T04:44:24.750Z,27.10
2023-09-12T04:44:56.226Z,31.45
2023-09-12T04:45:27.760Z,35.00
2023-09-12T04:45:59.402Z,31.10
2023-09-12T04:46:30.935Z,30.55
2023-09-12T04:47:02.683Z,30.77
2023-09-12T04:47:34.202Z,32.13
2023-09-12T04:48:05.986Z,29.83
2023-09-12T04:48:37.574Z,34.78
2023-09-12T04:49:09.087Z,28.88
2023-09-12T04:49:41.180Z,35.42
2023-09-12T04:50:15.244Z,33.38
2023-09-12T04:50:46.898Z,34.05
2023-09-12T04:51:18.344Z,29.58
2023-09-12T04:51:49.804Z,32.95
2023-09-12T04:52:21.258Z,30.35
2023-09-12T04:52:52.732Z,35.80
2023-09-12T04:53:24.187Z,28.63
2023-09-12T04:53:55.966Z,29.95
2023-09-12T04:54:27.577Z,29.98
2023-09-12T04:54:59.015Z,33.75
2023-09-12T04:55:30.485Z,31.67
2023-09-12T04:56:07.278Z,30.40
2023-09-12T04:56:38.747Z,32.17
2023-09-12T04:57:10.173Z,32.92
2023-09-12T04:57:42.790Z,29.60
2023-09-12T04:58:14.530Z,33.63
2023-09-12T04:58:45.985Z,29.25
2023-09-12T04:59:17.482Z,30.88
2023-09-12T04:59:48.921Z,30.67
2023-09-12T05:00:20.380Z,30.00
2023-09-12T05:00:51.794Z,31.50
2023-09-12T05:01:23.328Z,28.52
2023-09-12T05:01:54.842Z,32.13
2023-09-12T05:02:26.733Z,31.00
2023-09-12T05:02:58.420Z,31.33
2023-09-12T05:03:30.029Z,30.10
2023-09-12T05:04:01.551Z,29.75
2023-09-12T05:04:33.161Z,29.75
2023-09-12T05:05:05.097Z,32.88
2023-09-12T05:05:39.687Z,29.77
2023-09-12T05:06:12.572Z,32.90
2023-09-12T05:06:44.306Z,29.67
2023-09-12T05:07:15.699Z,32.97
2023-09-12T05:07:47.259Z,29.48
2023-09-12T05:08:21.689Z,30.45
2023-09-12T05:08:53.294Z,28.30
2023-09-12T05:09:24.761Z,29.83
2023-09-12T05:09:56.279Z,28.95
2023-09-12T05:10:27.705Z,28.38
2023-09-12T05:10:59.110Z,29.33
2023-09-12T05:11:30.524Z,28.85
2023-09-12T05:12:01.928Z,28.17
2023-09-12T05:12:33.384Z,30.05
2023-09-12T05:13:04.825Z,33.15
2023-09-12T05:13:36.302Z,30.90
2023-09-12T05:14:07.825Z,28.47
2023-09-12T05:14:39.281Z,31.38
2023-09-12T05:15:10.896Z,30.02
2023-09-12T05:15:42.934Z,32.45
2023-09-12T05:16:14.483Z,29.98
2023-09-12T05:16:46.022Z,29.52
2023-09-12T05:17:17.445Z,30.98
2023-09-12T05:17:48.909Z,29.27
2023-09-12T05:18:20.474Z,28.70
2023-09-12T05:18:52.754Z,31.55
2023-09-12T05:19:25.186Z,28.40
2023-09-12T05:19:56.621Z,28.00
2023-09-12T05:20:28.099Z,29.05
2023-09-12T05:20:59.566Z,30.02
2023-09-12T05:21:31.063Z,30.77
2023-09-12T05:22:02.602Z,29.00
2023-09-12T05:22:34.103Z,33.80
2023-09-12T05:23:05.729Z,31.92
2023-09-12T05:23:37.178Z,29.83
2023-09-12T05:24:08.833Z,27.60
2023-09-12T05:24:40.413Z,29.70
2023-09-12T05:25:11.904Z,30.38
2023-09-12T05:25:43.370Z,29.20
2023-09-12T05:26:14.776Z,29.00
2023-09-12T05:26:46.321Z,29.27
2023-09-12T05:27:17.779Z,29.05
2023-09-12T05:27:49.239Z,31.15
2023-09-12T05:28:20.740Z,29.55
2023-09-12T05:28:52.287Z,28.58
2023-09-12T05:29:23.779Z,29.35
2023-09-12T05:29:55.191Z,29.60
2023-09-12T05:30:26.731Z,32.38
2023-09-12T05:30:58.278Z,28.38
2023-09-12T05:31:29.916Z,31.50
2023-09-12T05:32:02.003Z,30.98
2023-09-12T05:32:33.739Z,31.45
2023-09-12T05:33:05.378Z,31.50
2023-09-12T05:33:36.896Z,30.60
2023-09-12T05:34:08.378Z,34.38
2023-09-12T05:34:39.857Z,30.27
2023-09-12T05:35:21.494Z,31.37
2023-09-12T05:35:54.029Z,30.80
2023-09-12T05:36:25.798Z,33.90
2023-09-12T05:36:57.995Z,30.90
2023-09-12T05:37:29.896Z,32.47
2023-09-12T05:38:01.344Z,32.22
2023-09-12T05:38:32.766Z,31.33
2023-09-12T05:39:04.710Z,32.85
2023-09-12T05:39:36.326Z,33.47
2023-09-12T05:40:08.268Z,37.10
2023-09-12T05:40:39.828Z,30.03
2023-09-12T05:41:11.239Z,34.05
2023-09-12T05:41:42.641Z,33.65
2023-09-12T05:42:15.947Z,33.30
2023-09-12T05:42:47.529Z,31.92
2023-09-12T05:43:19.045Z,32.53
2023-09-12T05:43:50.474Z,37.13
2023-09-12T05:44:21.918Z,34.08
2023-09-12T05:44:57.395Z,34.83
2023-09-12T05:45:31.762Z,34.85
2023-09-12T05:46:03.417Z,29.03
2023-09-12T05:46:34.960Z,33.78
2023-09-12T05:47:07.882Z,33.72
2023-09-12T05:47:39.401Z,30.92
2023-09-12T05:48:11.088Z,30.83
2023-09-12T05:48:42.953Z,29.60
2023-09-12T05:49:15.598Z,29.88
2023-09-12T05:49:47.141Z,37.90
2023-09-12T05:50:18.561Z,29.50
2023-09-12T05:50:50.043Z,32.70
2023-09-12T05:51:21.558Z,32.67
2023-09-12T05:51:53.116Z,32.08
2023-09-12T05:52:24.577Z,33.60
2023-09-12T05:52:55.964Z,35.95
2023-09-12T05:53:27.329Z,30.65
2023-09-12T05:53:58.880Z,37.92
2023-09-12T05:54:30.375Z,36.03
2023-09-12T05:55:01.942Z,35.00
2023-09-12T05:55:33.403Z,39.47
2023-09-12T05:56:04.817Z,37.20
2023-09-12T05:56:36.311Z,34.30
2023-09-12T05:57:08.603Z,34.30
2023-09-12T05:57:40.016Z,35.58
2023-09-12T05:58:11.536Z,36.22
2023-09-12T05:58:44.158Z,35.90
2023-09-12T05:59:15.811Z,33.53
2023-09-12T05:59:47.196Z,35.60
2023-09-12T06:00:19.205Z,34.65
2023-09-12T06:00:51.094Z,33.25
2023-09-12T06:01:22.619Z,32.20
2023-09-12T06:01:54.720Z,31.67
2023-09-12T06:02:26.531Z,35.75
2023-09-12T06:02:58.106Z,34.67
2023-09-12T06:03:30.128Z,37.63
2023-09-12T06:04:01.856Z,34.88
2023-09-12T06:04:33.805Z,36.38
2023-09-12T06:05:05.589Z,32.70
2023-09-12T06:05:37.097Z,31.00
2023-09-12T06:06:08.627Z,36.92
2023-09-12T06:06:40.232Z,35.90
2023-09-12T06:07:15.082Z,34.37
2023-09-12T06:07:47.925Z,36.20
2023-09-12T06:08:19.493Z,34.40
2023-09-12T06:08:50.869Z,37.33
2023-09-12T06:09:22.301Z,38.58
2023-09-12T06:09:54.663Z,42.13
2023-09-12T06:10:26.102Z,37.67
2023-09-12T06:10:57.656Z,38.03
2023-09-12T06:11:29.080Z,36.03
2023-09-12T06:12:00.644Z,35.17
2023-09-12T06:12:34.068Z,39.50
2023-09-12T06:13:05.693Z,38.55
2023-09-12T06:13:38.569Z,35.70
2023-09-12T06:14:09.979Z,36.65
2023-09-12T06:14:41.526Z,38.97
2023-09-12T06:15:13.014Z,39.25
2023-09-12T06:15:44.523Z,37.05
2023-09-12T06:16:16.062Z,35.47
2023-09-12T06:16:47.773Z,37.40
2023-09-12T06:17:19.210Z,39.45
2023-09-12T06:17:50.794Z,39.73
2023-09-12T06:18:22.339Z,42.85
2023-09-12T06:18:54.845Z,41.65
2023-09-12T06:19:26.330Z,40.88
2023-09-12T06:19:57.868Z,48.08
2023-09-12T06:20:29.329Z,45.05
2023-09-12T06:21:03.065Z,45.63
2023-09-12T06:21:34.470Z,44.67
2023-09-12T06:22:06.029Z,43.50
2023-09-12T06:22:37.529Z,41.85
2023-09-12T06:23:09.014Z,42.57
2023-09-12T06:23:40.603Z,47.03
2023-09-12T06:24:16.198Z,48.25
2023-09-12T06:24:47.704Z,43.55
2023-09-12T06:25:19.481Z,44.97
2023-09-12T06:25:51.008Z,46.60
2023-09-12T06:26:22.508Z,42.85
2023-09-12T06:26:54.133Z,49.30
2023-09-12T06:27:25.716Z,47.08
2023-09-12T06:27:57.185Z,43.17
2023-09-12T06:28:31.058Z,43.10
2023-09-12T06:29:03.650Z,47.47
2023-09-12T06:29:35.214Z,46.45
2023-09-12T06:30:07.411Z,47.90
2023-09-12T06:30:39.030Z,48.08
2023-09-12T06:31:10.817Z,45.03
2023-09-12T06:31:42.651Z,46.63
2023-09-12T06:32:14.327Z,42.47
2023-09-12T06:32:45.836Z,43.05
2023-09-12T06:33:17.255Z,44.85
2023-09-12T06:33:48.759Z,44.43
2023-09-12T06:34:20.263Z,44.75
2023-09-12T06:34:51.725Z,43.58
2023-09-12T06:35:23.217Z,42.72
2023-09-12T06:35:55.202Z,47.58
2023-09-12T06:36:27.077Z,44.35
2023-09-12T06:36:58.525Z,43.67
2023-09-12T06:37:29.945Z,49.22
2023-09-12T06:38:01.340Z,46.63
2023-09-12T06:38:32.730Z,46.70
2023-09-12T06:39:06.247Z,48.37
2023-09-12T06:39:38.230Z,44.60
2023-09-12T06:40:09.886Z,43.05
2023-09-12T06:40:41.445Z,47.38
2023-09-12T06:41:13.020Z,42.67
2023-09-12T06:41:44.714Z,49.42
2023-09-12T06:42:16.188Z,51.30
2023-09-12T06:42:47.691Z,49.90
2023-09-12T06:43:19.139Z,44.85
2023-09-12T06:43:50.669Z,45.10
2023-09-12T06:44:22.106Z,42.20
2023-09-12T06:44:53.539Z,43.88
2023-09-12T06:45:25.027Z,48.40
2023-09-12T06:45:56.518Z,45.42
2023-09-12T06:46:28.059Z,45.35
2023-09-12T06:46:59.540Z,46.15
2023-09-12T06:47:30.982Z,47.33
2023-09-12T06:48:02.443Z,43.42
2023-09-12T06:48:33.972Z,45.35
2023-09-12T06:49:05.528Z,50.72
2023-09-12T06:49:38.616Z,50.90
2023-09-12T06:50:14.104Z,45.88
2023-09-12T06:50:51.695Z,46.97
2023-09-12T06:51:27.650Z,50.03
2023-09-12T06:52:02.176Z,49.05
2023-09-12T06:52:33.570Z,47.17
2023-09-12T06:53:08.020Z,44.05
2023-09-12T06:53:40.024Z,44.67
2023-09-12T06:54:11.683Z,50.85
2023-09-12T06:54:43.335Z,46.10
2023-09-12T06:55:14.913Z,48.63
2023-09-12T06:55:46.378Z,44.88
2023-09-12T06:56:17.850Z,45.00